CheckWX is a tool to help pilots better visualize weather data.  It is not intended as a substitute for an official pre-flight weather briefing.

21:05:08 UTC

KBIV METAR
West Michigan Regional Airport
Holland, Michigan, USA
Current

12 mins ago

KBIV 232053Z AUTO 09011KT 7SM -RA OVC026 03/M02 A2985 RMK AO2 RAB29 SLP116 P0001 60001 T00281017 58030
Observed
Feb-23 @ 20:53 UTC
Wind
  • 090° at 11 KTS
Visibility
7 SM
Flight Rules
MVFR
Conditions
Light Rain
Cloud Levels
  • Overcast at 2,600' AGL
Temperature
C / 37°F
Dewpoint
-2°C / 28°F
Humidity
70%
Altimeter
29.85" Hg
Pressure
1011.6 hPa
Current Rain
0.01"
Previous

1 hour ago

KBIV 231953Z AUTO 06006KT 6SM HZ OVC023 02/M02 A2990 RMK AO2 RAE12B35E47 SLP131 P0000 T00221017
Observed
Feb-23 @ 19:53 UTC
Wind
  • 060° at 6 KTS
Visibility
6 SM
Flight Rules
MVFR
Conditions
Haze
Cloud Levels
  • Overcast at 2,300' AGL
Temperature
C / 36°F
Dewpoint
-2°C / 28°F
Humidity
75%
Altimeter
29.9" Hg
Pressure
1013.1 hPa
Current Rain
0.01"
Previous

2 hours ago

KBIV 231853Z AUTO 01005KT 7SM -RA OVC025 04/M03 A2994 RMK AO2 RAB36 SLP145 P0000 T00391028
Observed
Feb-23 @ 18:53 UTC
Wind
  • 010° at 5 KTS
Visibility
7 SM
Flight Rules
MVFR
Conditions
Light Rain
Cloud Levels
  • Overcast at 2,500' AGL
Temperature
C / 39°F
Dewpoint
-3°C / 27°F
Humidity
61%
Altimeter
29.94" Hg
Pressure
1014.5 hPa
Current Rain
0.01"